Time;durP1;ratioP1;P1;durP2;ratioP2;P2;SDS_P1;SDS_P2;PMS_P1;PMS_P2;Temp;Humidity;BMP_temperature;BMP_pressure;BME280_temperature;BME280_humidity;BME280_pressure;Samples;Min_cycle;Max_cycle;Signal;HPM_P1;HPM_P2
2023/07/31 00:00:14;;;;;;;0.90;0.45;;;;;;;;;;4994991;28;20038;-78
2023/07/31 00:02:41;;;;;;;4.47;0.57;;;15.10;99.90;;;;;;5013743;28;20125;-80
2023/07/31 00:05:09;;;;;;;2.83;1.05;;;15.40;99.90;;;;;;5011813;28;20033;-80
2023/07/31 00:07:35;;;;;;;1.13;0.47;;;;;;;;;;5009689;28;20030;-79
2023/07/31 00:10:02;;;;;;;1.30;0.80;;;;;;;;;;5000599;28;20057;-81
2023/07/31 00:12:28;;;;;;;3.08;0.70;;;;;;;;;;5012360;28;20188;-80
2023/07/31 00:14:55;;;;;;;3.78;0.93;;;14.80;99.90;;;;;;4995739;28;20088;-81
2023/07/31 00:17:20;;;;;;;2.70;0.55;;;14.90;99.90;;;;;;5010534;28;20026;-81
2023/07/31 00:19:48;;;;;;;1.63;0.55;;;;;;;;;;5016032;28;20033;-81
2023/07/31 00:22:14;;;;;;;1.20;0.50;;;14.80;99.90;;;;;;4991009;28;20022;-81
2023/07/31 00:24:40;;;;;;;0.65;0.45;;;;;;;;;;5017539;28;20022;-81
2023/07/31 00:27:06;;;;;;;2.47;0.50;;;15.10;99.90;;;;;;5011816;28;20022;-81
2023/07/31 00:29:31;;;;;;;1.33;0.47;;;14.80;99.90;;;;;;5012753;28;20048;-83
2023/07/31 00:31:57;;;;;;;1.40;0.50;;;14.80;99.90;;;;;;5008209;28;20042;-80
2023/07/31 00:34:22;;;;;;;8.15;1.10;;;14.90;99.90;;;;;;4995933;28;20171;-82
2023/07/31 00:36:48;;;;;;;1.67;0.65;;;;;;;;;;4994307;28;20037;-83
2023/07/31 00:39:14;;;;;;;2.28;0.40;;;;;;;;;;5015584;28;20033;-81
2023/07/31 00:41:40;;;;;;;1.17;0.55;;;;;;;;;;5013569;28;20030;-81
2023/07/31 00:44:06;;;;;;;2.97;0.60;;;;;;;;;;4992103;28;20121;-82
2023/07/31 00:46:32;;;;;;;1.77;0.40;;;15.20;99.90;;;;;;5013385;28;20038;-81
2023/07/31 00:48:58;;;;;;;0.55;0.40;;;14.90;99.90;;;;;;5012794;28;20030;-82
2023/07/31 00:51:24;;;;;;;1.45;0.77;;;14.80;99.90;;;;;;4993434;28;20030;-80
2023/07/31 00:53:54;;;;;;;3.47;0.50;;;14.80;99.90;;;;;;4993696;28;20034;-81
2023/07/31 00:56:20;;;;;;;3.17;0.88;;;14.60;99.90;;;;;;5014606;28;20371;-82
2023/07/31 00:58:46;;;;;;;3.58;0.70;;;14.80;99.90;;;;;;5013448;28;20046;-82
2023/07/31 01:01:11;;;;;;;2.13;1.10;;;14.60;99.90;;;;;;5010267;28;20068;-83
2023/07/31 01:03:37;;;;;;;1.33;0.63;;;;;;;;;;5013193;28;20030;-81
2023/07/31 01:06:17;;;;;;;5.38;0.90;;;14.70;99.90;;;;;;4994328;28;20486;-81
2023/07/31 01:08:49;;;;;;;1.15;0.50;;;;;;;;;;5011461;28;20025;-83
2023/07/31 01:11:27;;;;;;;2.20;0.60;;;14.60;99.90;;;;;;5010909;28;20073;-83
2023/07/31 01:13:54;;;;;;;1.98;0.55;;;14.60;99.90;;;;;;4997275;28;20041;-82
2023/07/31 01:16:21;;;;;;;1.33;0.55;;;;;;;;;;5012130;28;20030;-81
2023/07/31 01:18:47;;;;;;;1.13;0.47;;;;;;;;;;5001735;28;20494;-82
2023/07/31 01:21:32;;;;;;;1.52;0.50;;;14.90;99.90;;;;;;5000411;28;20041;-81
2023/07/31 01:24:15;;;;;;;2.97;0.63;;;14.60;99.90;;;;;;5002277;28;20045;-82
2023/07/31 01:26:46;;;;;;;1.30;0.33;;;14.70;99.90;;;;;;5004584;28;20034;-82
2023/07/31 01:29:34;;;;;;;2.28;1.05;;;14.60;99.90;;;;;;4985451;28;20061;-82
2023/07/31 01:32:02;;;;;;;1.23;0.52;;;14.70;99.90;;;;;;5001550;28;21284;-82
2023/07/31 01:34:29;;;;;;;4.20;0.98;;;16.90;99.90;;;;;;4990331;28;20541;-82
2023/07/31 01:36:56;;;;;;;6.97;1.13;;;14.70;99.90;;;;;;4989755;28;20065;-81
2023/07/31 01:39:22;;;;;;;5.03;0.73;;;14.80;99.90;;;;;;5004544;28;20052;-81
2023/07/31 01:41:47;;;;;;;1.38;0.93;;;14.40;99.90;;;;;;5003452;28;20026;-80
2023/07/31 01:44:13;;;;;;;0.75;0.43;;;14.40;99.90;;;;;;4989417;28;20092;-82
2023/07/31 01:46:38;;;;;;;3.75;0.82;;;14.50;99.90;;;;;;5013807;28;20037;-81
2023/07/31 01:49:06;;;;;;;1.15;0.60;;;14.40;99.90;;;;;;5006218;28;20091;-81
2023/07/31 01:51:35;;;;;;;4.28;0.40;;;;;;;;;;5008133;28;20031;-82
2023/07/31 01:54:02;;;;;;;3.15;1.10;;;14.50;99.90;;;;;;4994770;28;20048;-81
2023/07/31 01:56:28;;;;;;;3.03;0.50;;;14.40;99.90;;;;;;4990251;28;20022;-82
2023/07/31 01:58:54;;;;;;;3.08;0.82;;;;;;;;;;4992084;28;20112;-80
2023/07/31 02:01:20;;;;;;;3.90;0.80;;;;;;;;;;4996434;28;20038;-79
2023/07/31 02:03:46;;;;;;;1.45;0.52;;;;;;;;;;4989313;28;20038;-81
2023/07/31 02:06:12;;;;;;;1.48;0.60;;;;;;;;;;5003304;28;20091;-82
2023/07/31 02:08:37;;;;;;;1.15;0.50;;;14.40;99.90;;;;;;4986021;28;20161;-81
2023/07/31 02:11:04;;;;;;;5.30;0.80;;;;;;;;;;5004731;28;20069;-82
2023/07/31 02:13:29;;;;;;;2.97;0.57;;;;;;;;;;4992229;28;20136;-82
2023/07/31 02:15:55;;;;;;;4.38;0.57;;;;;;;;;;4990389;28;20060;-81
2023/07/31 02:18:22;;;;;;;2.40;0.52;;;;;;;;;;4990333;28;20505;-82
2023/07/31 02:20:51;;;;;;;3.67;0.80;;;14.40;99.90;;;;;;4989704;28;20510;-79
2023/07/31 02:23:18;;;;;;;2.80;0.38;;;;;;;;;;5004970;28;20030;-80
2023/07/31 02:25:44;;;;;;;6.63;0.75;;;14.70;99.90;;;;;;4989832;28;20053;-81
2023/07/31 02:28:10;;;;;;;2.22;0.50;;;14.80;99.90;;;;;;5009154;28;20628;-80
2023/07/31 02:30:36;;;;;;;5.93;0.75;;;;;;;;;;5003172;28;20080;-82
2023/07/31 02:33:01;;;;;;;1.38;0.52;;;;;;;;;;5008360;28;20912;-82
2023/07/31 02:35:29;;;;;;;1.88;0.63;;;;;;;;;;5011576;28;20505;-82
2023/07/31 02:37:54;;;;;;;2.30;0.65;;;14.60;99.90;;;;;;4995676;28;20033;-82
2023/07/31 02:40:20;;;;;;;1.13;0.65;;;;;;;;;;4991414;28;20443;-81
2023/07/31 02:42:46;;;;;;;2.85;0.93;;;;;;;;;;5006341;28;20080;-82
2023/07/31 02:45:14;;;;;;;1.40;0.45;;;14.70;99.90;;;;;;5007620;28;20034;-82
2023/07/31 02:47:39;;;;;;;1.30;0.60;;;;;;;;;;4988491;28;20075;-80
2023/07/31 02:50:06;;;;;;;2.17;0.60;;;14.80;99.90;;;;;;5007667;28;20125;-82
2023/07/31 02:52:34;;;;;;;3.28;0.93;;;;;;;;;;5004945;28;20025;-82
2023/07/31 02:55:00;;;;;;;1.73;0.90;;;;;;;;;;5007951;28;20030;-82
2023/07/31 02:57:26;;;;;;;4.00;0.65;;;14.70;99.90;;;;;;5009067;28;20025;-83
2023/07/31 02:59:52;;;;;;;2.08;0.60;;;;;;;;;;5008245;28;20022;-82
2023/07/31 03:02:19;;;;;;;1.63;0.70;;;14.80;99.90;;;;;;4994299;28;20030;-80
2023/07/31 03:08:07;;;;;;;6.78;0.85;;;15.00;99.90;;;;;;4998990;28;20109;-82
2023/07/31 03:10:32;;;;;;;0.93;0.40;;;15.00;99.90;;;;;;4986475;28;20103;-80
2023/07/31 03:12:58;;;;;;;1.90;0.77;;;15.00;99.90;;;;;;5007709;28;20057;-79
2023/07/31 03:15:23;;;;;;;1.42;0.30;;;15.20;99.90;;;;;;5019372;28;20014;-79
2023/07/31 03:17:49;;;;;;;1.70;0.60;;;14.80;99.90;;;;;;5027114;28;20113;-79
2023/07/31 03:20:15;;;;;;;6.40;0.85;;;;;;;;;;5005421;28;20125;-79
2023/07/31 03:22:41;;;;;;;1.30;0.50;;;;;;;;;;5015722;28;20056;-82
2023/07/31 03:25:07;;;;;;;1.85;0.57;;;;;;;;;;5011227;28;20039;-80
2023/07/31 03:27:32;;;;;;;1.25;0.47;;;14.40;99.90;;;;;;5010175;28;20032;-80
2023/07/31 03:29:59;;;;;;;2.40;0.43;;;14.70;99.90;;;;;;4997130;28;20058;-80
2023/07/31 03:32:24;;;;;;;3.58;0.75;;;14.60;99.90;;;;;;5011661;28;20052;-81
2023/07/31 03:34:50;;;;;;;0.88;0.40;;;;;;;;;;4997145;28;20030;-81
2023/07/31 03:37:17;;;;;;;3.90;0.70;;;14.10;99.90;;;;;;5010058;28;20037;-81
2023/07/31 03:39:43;;;;;;;1.52;0.77;;;14.40;99.90;;;;;;5010626;28;20034;-83
2023/07/31 03:42:08;;;;;;;3.65;0.65;;;14.30;99.90;;;;;;4994569;28;20035;-82
2023/07/31 03:44:37;;;;;;;5.28;0.85;;;14.30;99.90;;;;;;5015715;28;20029;-82
2023/07/31 03:47:05;;;;;;;1.40;0.47;;;14.30;99.90;;;;;;5010895;28;20025;-82
2023/07/31 03:49:31;;;;;;;1.70;1.05;;;14.40;99.90;;;;;;5011073;28;20031;-82
2023/07/31 03:51:57;;;;;;;5.43;0.95;;;14.20;99.90;;;;;;4995385;28;20041;-82
2023/07/31 03:54:23;;;;;;;10.73;0.80;;;;;;;;;;5004212;28;20148;-79
2023/07/31 03:56:50;;;;;;;2.10;0.55;;;14.20;99.90;;;;;;5003643;28;20037;-82
2023/07/31 03:59:15;;;;;;;2.78;0.60;;;14.40;99.90;;;;;;5001180;28;20034;-82
2023/07/31 04:01:41;;;;;;;2.95;0.55;;;;;;;;;;5001831;28;20434;-79
2023/07/31 04:04:07;;;;;;;2.08;0.65;;;;;;;;;;5007678;28;20390;-82
2023/07/31 04:06:33;;;;;;;2.75;0.80;;;;;;;;;;5004035;28;21189;-82
2023/07/31 04:08:59;;;;;;;3.35;0.95;;;;;;;;;;5009871;28;20034;-82
2023/07/31 04:11:25;;;;;;;1.58;0.73;;;;;;;;;;4996829;28;20040;-81
2023/07/31 04:13:51;;;;;;;1.90;0.82;;;12.10;99.90;;;;;;5011719;28;20030;-80
2023/07/31 04:16:17;;;;;;;3.38;0.73;;;;;;;;;;4986385;28;20034;-81
2023/07/31 04:18:42;;;;;;;2.50;0.45;;;;;;;;;;4985783;28;20026;-82
2023/07/31 04:21:09;;;;;;;5.15;0.55;;;;;;;;;;4989873;28;20116;-81
2023/07/31 04:23:35;;;;;;;2.97;1.00;;;14.90;99.90;;;;;;5004468;28;20490;-79
2023/07/31 04:26:01;;;;;;;3.35;0.77;;;;;;;;;;4989405;28;20041;-81
2023/07/31 04:28:27;;;;;;;2.15;0.70;;;15.10;99.90;;;;;;5004472;28;20114;-81
2023/07/31 04:30:53;;;;;;;1.67;0.70;;;;;;;;;;4997278;28;20371;-82
2023/07/31 04:33:20;;;;;;;7.95;1.40;;;15.00;99.90;;;;;;4999100;28;20029;-81
2023/07/31 04:35:52;;;;;;;1.77;0.60;;;15.40;99.90;;;;;;5000119;28;20030;-81
2023/07/31 04:38:18;;;;;;;2.27;0.50;;;15.10;99.90;;;;;;5007272;28;20033;-83
2023/07/31 04:40:44;;;;;;;1.00;0.50;;;15.20;99.90;;;;;;5011945;28;20056;-81
2023/07/31 04:43:10;;;;;;;1.52;0.52;;;;;;;;;;5012665;28;20030;-81
2023/07/31 04:45:35;;;;;;;3.20;0.85;;;15.60;99.90;;;;;;5007053;28;20033;-81
2023/07/31 04:48:01;;;;;;;1.92;0.70;;;;;;;;;;5004002;28;20112;-80
2023/07/31 04:50:30;;;;;;;1.00;0.40;;;15.40;99.90;;;;;;5000842;28;20046;-82
2023/07/31 04:52:56;;;;;;;2.90;0.73;;;;;;;;;;4979424;28;20104;-80
2023/07/31 04:55:22;;;;;;;3.10;0.57;;;;;;;;;;4985148;28;20121;-78
2023/07/31 04:57:47;;;;;;;3.22;1.17;;;15.30;99.90;;;;;;5000194;28;20076;-82
2023/07/31 05:00:13;;;;;;;6.65;0.82;;;15.40;99.90;;;;;;4982661;28;20049;-80
2023/07/31 05:02:39;;;;;;;2.85;0.70;;;;;;;;;;4982289;28;20062;-81
2023/07/31 05:05:05;;;;;;;2.47;0.55;;;;;;;;;;4986503;28;20530;-80
2023/07/31 05:07:31;;;;;;;1.88;0.50;;;;;;;;;;5002881;28;20026;-80
2023/07/31 05:09:56;;;;;;;2.30;0.82;;;16.40;99.90;;;;;;5006806;28;20363;-79
2023/07/31 05:12:22;;;;;;;4.25;1.00;;;15.60;99.90;;;;;;5001122;28;20305;-80
2023/07/31 05:14:48;;;;;;;2.30;0.88;;;;;;;;;;4991545;28;20030;-80
2023/07/31 05:17:14;;;;;;;2.40;0.98;;;;;;;;;;4990984;28;20032;-79
2023/07/31 05:19:40;;;;;;;1.20;0.50;;;;;;;;;;5008439;28;20049;-80
2023/07/31 05:22:05;;;;;;;1.83;0.65;;;16.80;99.90;;;;;;4992938;28;20375;-80
2023/07/31 05:24:31;;;;;;;3.38;0.73;;;;;;;;;;5015082;28;20032;-81
2023/07/31 05:26:57;;;;;;;2.53;0.98;;;17.30;99.90;;;;;;5014515;28;20127;-81
2023/07/31 05:29:23;;;;;;;1.63;0.93;;;;;;;;;;5011046;28;20029;-80
2023/07/31 05:31:49;;;;;;;3.10;0.82;;;;;;;;;;5006740;28;20060;-81
2023/07/31 05:34:16;;;;;;;3.10;0.70;;;17.80;99.90;;;;;;5007367;28;20036;-81
2023/07/31 05:36:42;;;;;;;1.75;0.43;;;;;;;;;;5003328;28;20039;-81
2023/07/31 05:39:08;;;;;;;3.67;0.70;;;17.40;99.90;;;;;;4988512;28;20103;-81
2023/07/31 05:41:35;;;;;;;1.75;0.52;;;17.40;99.90;;;;;;5001940;28;20038;-78
2023/07/31 05:44:01;;;;;;;4.50;1.25;;;;;;;;;;5009084;28;20091;-79
2023/07/31 05:46:27;;;;;;;2.20;0.80;;;;;;;;;;5013570;28;20038;-81
2023/07/31 05:48:53;;;;;;;3.75;0.85;;;17.20;99.90;;;;;;5012729;28;20530;-81
2023/07/31 05:51:18;;;;;;;3.38;1.10;;;17.30;99.90;;;;;;5010001;28;20407;-79
2023/07/31 05:53:44;;;;;;;2.88;0.88;;;17.30;99.90;;;;;;4991159;28;20467;-80
2023/07/31 05:56:09;;;;;;;4.45;1.13;;;17.10;99.90;;;;;;5012871;28;20417;-82
2023/07/31 05:58:35;;;;;;;4.15;0.80;;;;;;;;;;5000233;28;20049;-80
2023/07/31 06:01:01;;;;;;;5.03;1.15;;;17.60;99.90;;;;;;5015191;28;20295;-81
2023/07/31 06:03:27;;;;;;;3.33;0.60;;;;;;;;;;5010348;28;20089;-81
2023/07/31 06:05:52;;;;;;;4.75;0.82;;;17.80;99.90;;;;;;5013852;28;20385;-81
2023/07/31 06:08:18;;;;;;;5.43;0.90;;;18.00;99.90;;;;;;5011707;28;20553;-80
2023/07/31 06:10:44;;;;;;;2.15;0.40;;;18.40;99.90;;;;;;4997996;28;20120;-81
2023/07/31 06:13:09;;;;;;;3.33;0.73;;;;;;;;;;5014280;28;20460;-79
2023/07/31 06:15:35;;;;;;;4.68;0.90;;;18.50;99.90;;;;;;5014390;28;20030;-82
2023/07/31 06:18:01;;;;;;;3.13;0.70;;;;;;;;;;4993917;28;20160;-81
2023/07/31 06:20:28;;;;;;;3.30;1.08;;;19.40;99.90;;;;;;4999318;28;20040;-81
2023/07/31 06:22:55;;;;;;;6.72;1.25;;;;;;;;;;5014751;28;20045;-82
2023/07/31 06:25:21;;;;;;;2.05;0.60;;;;;;;;;;5016676;28;20068;-82
2023/07/31 06:27:47;;;;;;;2.78;0.70;;;;;;;;;;5005161;28;20061;-81
2023/07/31 06:30:13;;;;;;;1.13;0.57;;;20.10;99.90;;;;;;4997295;28;20391;-81
2023/07/31 06:32:40;;;;;;;4.43;0.50;;;19.70;99.90;;;;;;5008668;28;20773;-81
2023/07/31 06:35:06;;;;;;;3.20;0.60;;;19.40;99.90;;;;;;5018273;28;20018;-81
2023/07/31 06:37:31;;;;;;;6.50;1.00;;;20.00;99.90;;;;;;5001705;28;20029;-82
2023/07/31 06:39:57;;;;;;;1.48;0.45;;;20.00;99.90;;;;;;5001178;28;20022;-81
2023/07/31 06:42:23;;;;;;;7.35;0.85;;;;;;;;;;5010964;28;20026;-81
2023/07/31 06:44:49;;;;;;;7.35;0.60;;;20.80;99.90;;;;;;5018637;28;20048;-80
2023/07/31 06:47:15;;;;;;;1.60;0.50;;;20.70;99.90;;;;;;5010823;28;20021;-82
2023/07/31 06:49:40;;;;;;;0.98;0.43;;;21.00;99.90;;;;;;5014813;28;20026;-82
2023/07/31 06:52:06;;;;;;;1.05;0.30;;;22.30;99.90;;;;;;5016730;28;20022;-81
2023/07/31 06:54:32;;;;;;;6.45;1.17;;;20.50;99.90;;;;;;5015935;28;20130;-81
2023/07/31 06:56:57;;;;;;;3.33;0.80;;;21.10;99.90;;;;;;4991196;28;20080;-82
2023/07/31 06:59:23;;;;;;;3.75;0.50;;;;;;;;;;4993425;28;20036;-83
2023/07/31 07:01:49;;;;;;;3.97;0.90;;;21.50;99.90;;;;;;5008435;28;20482;-81
2023/07/31 07:04:15;;;;;;;2.97;0.63;;;21.10;99.90;;;;;;5010757;28;20026;-82
2023/07/31 07:06:41;;;;;;;1.20;0.68;;;;;;;;;;4998156;28;20019;-81
2023/07/31 07:09:07;;;;;;;4.20;1.00;;;;;;;;;;4976802;28;20402;-80
2023/07/31 07:11:33;;;;;;;2.17;0.60;;;21.40;99.90;;;;;;4995702;28;20221;-81
2023/07/31 07:14:00;;;;;;;1.73;0.90;;;;;;;;;;5010936;28;20514;-80
2023/07/31 07:16:26;;;;;;;4.40;0.63;;;21.60;99.90;;;;;;4987001;28;20018;-81
2023/07/31 07:18:52;;;;;;;4.65;0.90;;;;;;;;;;5017552;28;20383;-81
2023/07/31 07:21:18;;;;;;;2.47;1.02;;;;;;;;;;5020115;28;20508;-80
2023/07/31 07:23:43;;;;;;;2.28;0.80;;;21.70;99.90;;;;;;5018178;28;20422;-82
2023/07/31 07:26:09;;;;;;;5.43;0.70;;;22.80;99.90;;;;;;5017747;28;20052;-76
2023/07/31 07:28:34;;;;;;;9.98;1.20;;;23.40;99.90;;;;;;5035237;28;20041;-77
2023/07/31 07:31:00;;;;;;;2.75;0.80;;;;;;;;;;5033627;28;20030;-79
2023/07/31 07:33:26;;;;;;;2.03;0.75;;;;;;;;;;5032812;28;20049;-80
2023/07/31 07:35:53;;;;;;;1.25;0.40;;;22.70;99.90;;;;;;5022403;28;20022;-81
2023/07/31 07:38:19;;;;;;;3.80;0.90;;;;;;;;;;5027428;28;20032;-81
2023/07/31 07:40:46;;;;;;;9.65;0.70;;;;;;;;;;5014288;28;20476;-82
2023/07/31 07:43:13;;;;;;;1.90;0.70;;;;;;;;;;5020040;28;20030;-81
2023/07/31 07:45:39;;;;;;;1.90;1.05;;;;;;;;;;5026830;28;20085;-81
2023/07/31 07:48:04;;;;;;;2.55;0.73;;;22.60;99.90;;;;;;5012854;28;20062;-82
2023/07/31 07:50:31;;;;;;;3.92;0.77;;;;;;;;;;5019376;28;20026;-81
2023/07/31 07:52:56;;;;;;;3.78;1.02;;;23.30;99.90;;;;;;5018772;28;20026;-80
2023/07/31 07:55:22;;;;;;;3.08;0.65;;;23.20;99.90;;;;;;5005865;28;20508;-80
2023/07/31 07:57:50;;;;;;;4.88;0.95;;;;;;;;;;4980172;28;20030;-82
2023/07/31 08:00:17;;;;;;;3.65;1.15;;;;;;;;;;5015563;28;20088;-81
2023/07/31 08:02:43;;;;;;;9.40;0.55;;;;;;;;;;5002439;28;20037;-82
2023/07/31 08:05:09;;;;;;;8.00;1.40;;;;;;;;;;5018864;28;20356;-82
2023/07/31 08:07:35;;;;;;;3.85;0.65;;;;;;;;;;5003422;28;20029;-81
2023/07/31 08:10:01;;;;;;;3.17;0.90;;;;;;;;;;4999341;28;20087;-81
2023/07/31 08:12:27;;;;;;;2.38;0.88;;;23.30;99.90;;;;;;5015288;28;20026;-81
2023/07/31 08:14:53;;;;;;;4.90;0.77;;;23.60;99.90;;;;;;5014540;28;20083;-82
2023/07/31 08:17:19;;;;;;;3.90;0.77;;;;;;;;;;5010655;28;20032;-81
2023/07/31 08:19:46;;;;;;;5.88;1.15;;;;;;;;;;5014641;28;20108;-79
2023/07/31 08:22:12;;;;;;;3.60;0.93;;;;;;;;;;5010350;28;20381;-80
2023/07/31 08:24:37;;;;;;;3.42;0.85;;;23.80;99.90;;;;;;5006443;28;20414;-81
2023/07/31 08:27:03;;;;;;;2.80;0.80;;;23.70;99.90;;;;;;4999407;28;20030;-80
2023/07/31 08:29:28;;;;;;;3.78;0.82;;;23.40;99.90;;;;;;5016670;28;20113;-81
2023/07/31 08:31:54;;;;;;;4.00;0.85;;;;;;;;;;5014733;28;20036;-82
2023/07/31 08:34:20;;;;;;;5.65;1.00;;;24.10;99.90;;;;;;4994657;28;20038;-81
2023/07/31 08:36:46;;;;;;;2.90;1.20;;;;;;;;;;4996719;28;20026;-80
2023/07/31 08:39:11;;;;;;;4.40;0.70;;;23.70;99.90;;;;;;4998200;28;20076;-81
2023/07/31 08:41:39;;;;;;;2.53;0.65;;;24.30;99.90;;;;;;5010343;28;20040;-79
2023/07/31 08:44:05;;;;;;;3.58;0.80;;;;;;;;;;5013634;28;20076;-79
2023/07/31 08:46:31;;;;;;;2.83;0.65;;;;;;;;;;5013724;28;20030;-81
2023/07/31 08:48:59;;;;;;;5.35;0.98;;;25.60;97.30;;;;;;5011731;28;20200;-81
2023/07/31 08:51:25;;;;;;;5.80;0.90;;;;;;;;;;5009086;28;20042;-80
2023/07/31 08:53:50;;;;;;;7.40;0.88;;;24.50;99.90;;;;;;5007619;28;20159;-79
2023/07/31 08:56:17;;;;;;;2.17;0.85;;;;;;;;;;5009584;28;20033;-81
2023/07/31 08:58:43;;;;;;;1.60;0.70;;;24.90;98.50;;;;;;4999846;28;20540;-82
2023/07/31 09:01:10;;;;;;;2.45;0.77;;;;;;;;;;4994775;28;20395;-81
2023/07/31 09:03:37;;;;;;;2.78;0.68;;;24.20;96.50;;;;;;4989735;28;20035;-79
2023/07/31 09:06:06;;;;;;;3.03;0.73;;;25.10;98.50;;;;;;5013860;28;20029;-81
2023/07/31 09:08:32;;;;;;;4.25;0.65;;;;;;;;;;5008864;28;20030;-80
2023/07/31 09:11:06;;;;;;;3.28;0.50;;;25.10;96.40;;;;;;4997173;28;20032;-81
2023/07/31 09:13:33;;;;;;;3.90;1.08;;;25.30;97.00;;;;;;4979926;28;20109;-80
2023/07/31 09:15:59;;;;;;;3.30;0.93;;;;;;;;;;4992745;28;20680;-81
2023/07/31 09:18:25;;;;;;;6.35;0.93;;;;;;;;;;4992794;28;20401;-81
2023/07/31 09:21:04;;;;;;;3.45;0.75;;;24.70;99.90;;;;;;4980530;28;20030;-80
2023/07/31 09:23:51;;;;;;;3.05;0.90;;;24.50;95.50;;;;;;4986521;28;20109;-81
2023/07/31 09:26:30;;;;;;;3.72;0.73;;;24.90;98.30;;;;;;4993894;28;20388;-80
2023/07/31 09:28:56;;;;;;;3.67;0.82;;;24.90;99.90;;;;;;4980754;28;20547;-81
2023/07/31 09:31:33;;;;;;;3.53;0.70;;;24.30;99.90;;;;;;4991738;28;20042;-81
2023/07/31 09:34:00;;;;;;;2.78;0.80;;;;;;;;;;4995961;28;20041;-78
2023/07/31 09:36:30;;;;;;;4.05;0.85;;;25.30;96.80;;;;;;4994589;28;20042;-82
2023/07/31 09:38:56;;;;;;;3.65;1.02;;;25.60;99.90;;;;;;4995174;28;20018;-81
2023/07/31 09:41:21;;;;;;;4.82;0.70;;;25.60;99.90;;;;;;4995259;28;20088;-79
2023/07/31 09:43:55;;;;;;;4.65;0.82;;;26.00;95.50;;;;;;5006530;28;20118;-82
2023/07/31 09:46:21;;;;;;;8.07;0.95;;;26.30;99.90;;;;;;4999486;28;20052;-80
2023/07/31 09:48:47;;;;;;;7.45;1.08;;;;;;;;;;5000194;28;20022;-83
2023/07/31 09:51:14;;;;;;;5.25;0.82;;;25.80;93.30;;;;;;5000753;28;20037;-79
2023/07/31 09:53:41;;;;;;;3.22;0.95;;;;;;;;;;5000118;28;20084;-81
2023/07/31 09:56:07;;;;;;;4.90;0.77;;;;;;;;;;5000568;28;20064;-79
2023/07/31 09:58:35;;;;;;;3.53;0.93;;;25.40;95.80;;;;;;4999093;28;20057;-81
2023/07/31 10:01:02;;;;;;;2.75;0.80;;;25.20;95.60;;;;;;4987419;28;20124;-82
2023/07/31 10:03:31;;;;;;;11.68;0.75;;;24.80;96.80;;;;;;4998090;28;21617;-80
2023/07/31 10:05:59;;;;;;;1.95;0.70;;;;;;;;;;5002022;28;20725;-79
2023/07/31 10:08:30;;;;;;;5.57;0.70;;;25.00;97.80;;;;;;5005550;28;20057;-82
2023/07/31 10:11:00;;;;;;;2.93;0.60;;;24.10;97.10;;;;;;5005437;28;20289;-81
2023/07/31 10:13:28;;;;;;;4.43;0.70;;;23.90;96.30;;;;;;4993574;28;20088;-80
2023/07/31 10:15:54;;;;;;;2.03;0.73;;;;;;;;;;4989497;28;20076;-80
2023/07/31 10:18:20;;;;;;;3.63;0.73;;;;;;;;;;4994912;28;20036;-79
2023/07/31 10:20:47;;;;;;;2.80;0.63;;;24.40;99.90;;;;;;5002547;28;20518;-81
2023/07/31 10:23:13;;;;;;;3.50;0.65;;;;;;;;;;5002929;28;20103;-79
2023/07/31 10:25:39;;;;;;;4.47;1.00;;;24.30;99.90;;;;;;5003257;28;22260;-81
2023/07/31 10:28:05;;;;;;;2.20;0.93;;;;;;;;;;5001319;28;20053;-82
2023/07/31 10:30:33;;;;;;;1.63;0.55;;;24.50;97.90;;;;;;4996468;28;20076;-81
2023/07/31 10:32:59;;;;;;;3.25;1.33;;;;;;;;;;4994662;28;20030;-81
2023/07/31 10:35:25;;;;;;;3.55;0.60;;;23.80;99.90;;;;;;4987713;28;20056;-81
2023/07/31 10:37:52;;;;;;;1.63;0.60;;;24.50;98.70;;;;;;4990115;28;20117;-80
2023/07/31 10:40:27;;;;;;;3.08;0.65;;;24.30;96.90;;;;;;4981987;28;20044;-80
2023/07/31 10:42:57;;;;;;;1.38;0.60;;;24.10;99.90;;;;;;5010081;28;20036;-81
2023/07/31 10:45:33;;;;;;;2.63;0.73;;;25.00;99.90;;;;;;5007064;28;20101;-78
2023/07/31 10:48:02;;;;;;;4.15;0.82;;;25.00;99.90;;;;;;5005881;28;20038;-80
2023/07/31 10:50:29;;;;;;;2.40;0.82;;;25.50;95.60;;;;;;5001251;28;20182;-79
2023/07/31 10:53:00;;;;;;;5.13;0.85;;;26.00;99.90;;;;;;5001751;28;20023;-78
2023/07/31 10:55:43;;;;;;;2.13;0.60;;;26.80;96.50;;;;;;5000428;28;20026;-79
2023/07/31 10:58:12;;;;;;;;;;;26.20;94.20;;;;;;4990066;28;20022;-80
2023/07/31 11:00:42;;;;;;;5.05;1.10;;;26.10;95.00;;;;;;4982914;28;19917;-80
2023/07/31 11:03:11;;;;;;;3.22;0.77;;;26.50;96.00;;;;;;4986570;28;20044;-79
2023/07/31 11:06:05;;;;;;;4.85;0.73;;;26.40;99.90;;;;;;4989359;28;20901;-80
2023/07/31 11:08:33;;;;;;;3.10;0.77;;;26.00;99.90;;;;;;5013043;28;20033;-79
2023/07/31 11:11:06;;;;;;;8.93;0.70;;;25.90;99.90;;;;;;5008594;28;20030;-80
2023/07/31 11:13:49;;;;;;;2.97;1.13;;;26.00;94.90;;;;;;5006703;28;20272;-84
2023/07/31 11:16:15;;;;;;;1.88;0.50;;;;;;;;;;4991495;28;20466;-82
2023/07/31 11:18:45;;;;;;;7.55;1.50;;;25.60;99.90;;;;;;5015712;28;20037;-80
2023/07/31 11:21:14;;;;;;;4.93;1.23;;;25.30;92.70;;;;;;5011878;28;20049;-81
2023/07/31 11:23:40;;;;;;;4.93;0.70;;;25.50;99.90;;;;;;5014460;28;20038;-82
2023/07/31 11:26:07;;;;;;;4.53;1.00;;;25.30;99.90;;;;;;5013889;28;20113;-81
2023/07/31 11:28:33;;;;;;;4.05;0.88;;;25.10;94.10;;;;;;5011978;28;20428;-79
2023/07/31 11:30:59;;;;;;;2.95;1.02;;;;;;;;;;5012558;28;20030;-79
2023/07/31 11:33:25;;;;;;;6.28;1.00;;;;;;;;;;5014986;28;20040;-81
2023/07/31 11:35:51;;;;;;;4.25;1.23;;;;;;;;;;5016122;28;20034;-82
2023/07/31 11:38:25;;;;;;;10.75;1.13;;;24.30;99.90;;;;;;5003245;28;20163;-81
2023/07/31 11:40:52;;;;;;;3.63;0.68;;;24.80;95.70;;;;;;5010528;28;20123;-80
2023/07/31 11:43:19;;;;;;;3.97;0.80;;;24.10;96.20;;;;;;5031391;28;20098;-80
2023/07/31 11:45:49;;;;;;;4.18;1.08;;;24.90;99.90;;;;;;5034531;28;20030;-80
2023/07/31 11:48:23;;;;;;;1.70;0.68;;;24.90;98.00;;;;;;5019412;28;20041;-81
2023/07/31 11:50:51;;;;;;;2.50;0.98;;;24.80;99.90;;;;;;5019630;28;20076;-82
2023/07/31 11:53:20;;;;;;;1.77;0.80;;;24.90;99.90;;;;;;5018970;28;20030;-83
2023/07/31 11:55:47;;;;;;;2.35;0.80;;;;;;;;;;4994083;28;20033;-82
2023/07/31 11:58:15;;;;;;;7.03;1.17;;;24.20;99.90;;;;;;5016234;28;20181;-83
2023/07/31 12:00:41;;;;;;;2.17;0.90;;;24.60;99.90;;;;;;5003200;28;20049;-82
2023/07/31 12:03:08;;;;;;;2.83;1.00;;;24.60;99.90;;;;;;5017326;28;20030;-84
2023/07/31 12:05:33;;;;;;;8.65;0.90;;;24.90;99.90;;;;;;5016136;28;20042;-83
2023/07/31 12:07:59;;;;;;;4.72;1.27;;;25.40;99.90;;;;;;5014754;28;20025;-83
2023/07/31 12:10:30;;;;;;;7.85;1.25;;;25.30;95.20;;;;;;5018151;28;20083;-82
2023/07/31 12:13:06;;;;;;;6.55;1.02;;;25.40;94.30;;;;;;5012141;28;20037;-81
2023/07/31 12:15:37;;;;;;;4.90;0.70;;;25.20;95.00;;;;;;5010422;28;20018;-83
2023/07/31 12:18:13;;;;;;;3.17;0.88;;;25.40;99.90;;;;;;4990636;28;20025;-81
2023/07/31 12:20:44;;;;;;;1.92;0.98;;;25.70;99.90;;;;;;4990056;28;20034;-81
2023/07/31 12:23:27;;;;;;;4.75;1.50;;;25.70;99.90;;;;;;5008411;28;20398;-82
2023/07/31 12:26:10;;;;;;;2.35;0.65;;;25.50;93.40;;;;;;4999189;28;20036;-81
2023/07/31 12:28:50;;;;;;;9.13;1.30;;;25.30;99.90;;;;;;4991998;28;20120;-82
2023/07/31 12:31:17;;;;;;;1.75;0.95;;;;;;;;;;5012726;28;20193;-81
2023/07/31 12:33:43;;;;;;;4.55;1.38;;;25.40;99.90;;;;;;5003998;28;20506;-81
2023/07/31 12:36:14;;;;;;;2.22;0.98;;;25.30;99.90;;;;;;5016735;28;20029;-83
2023/07/31 12:38:41;;;;;;;3.42;1.02;;;25.40;99.90;;;;;;5003776;28;20501;-83
2023/07/31 12:41:07;;;;;;;5.65;1.25;;;;;;;;;;4994521;28;20037;-81
2023/07/31 12:43:37;;;;;;;4.35;0.98;;;25.40;99.90;;;;;;5003735;28;20327;-80
2023/07/31 12:46:03;;;;;;;5.45;1.35;;;25.20;99.90;;;;;;5013875;28;20029;-82
2023/07/31 12:48:29;;;;;;;4.07;0.82;;;25.50;99.90;;;;;;5018746;28;20465;-82
2023/07/31 12:50:55;;;;;;;5.55;1.45;;;25.50;99.90;;;;;;4984789;28;20495;-81
2023/07/31 12:53:21;;;;;;;2.03;0.80;;;25.30;99.90;;;;;;5013118;28;20022;-80
2023/07/31 12:55:46;;;;;;;7.38;0.80;;;24.90;99.90;;;;;;5012679;28;20061;-81
2023/07/31 12:58:12;;;;;;;3.03;0.95;;;;;;;;;;5011984;28;20490;-83
2023/07/31 13:00:38;;;;;;;3.10;1.15;;;25.10;99.90;;;;;;4999570;28;20042;-82
2023/07/31 13:03:04;;;;;;;2.55;0.90;;;;;;;;;;5014940;28;20026;-83
2023/07/31 13:05:29;;;;;;;3.90;1.60;;;24.40;99.90;;;;;;5003708;28;20049;-80
2023/07/31 13:07:55;;;;;;;3.58;1.10;;;24.90;99.90;;;;;;5008424;28;20033;-81
2023/07/31 13:10:22;;;;;;;4.85;1.00;;;24.90;99.90;;;;;;5006284;28;20038;-81
2023/07/31 13:12:48;;;;;;;4.85;0.98;;;;;;;;;;5014557;28;20045;-83
2023/07/31 13:15:14;;;;;;;5.55;1.20;;;;;;;;;;5013660;28;20026;-81
2023/07/31 13:18:08;;;;;;;3.95;1.10;;;24.60;92.90;;;;;;5001608;28;20061;-82
2023/07/31 13:20:34;;;;;;;3.97;1.23;;;;;;;;;;4974064;28;20034;-81
2023/07/31 13:23:00;;;;;;;3.60;1.10;;;24.70;99.70;;;;;;5000476;28;20628;-81
2023/07/31 13:25:26;;;;;;;4.95;1.08;;;;;;;;;;4994130;28;20053;-81
2023/07/31 13:27:52;;;;;;;9.68;0.80;;;;;;;;;;4978334;28;20029;-83
2023/07/31 13:30:18;;;;;;;5.07;1.00;;;;;;;;;;4994949;28;20053;-79
2023/07/31 13:32:43;;;;;;;2.28;0.85;;;;;;;;;;4977471;28;20025;-78